createdAt,value
2023-01-20T00:00:20.574Z,16.25
2023-01-20T00:02:47.284Z,14.45
2023-01-20T00:05:14.379Z,13.32
2023-01-20T00:07:41.170Z,15.25
2023-01-20T00:10:08.672Z,15.10
2023-01-20T00:12:35.544Z,13.90
2023-01-20T00:15:02.164Z,16.08
2023-01-20T00:17:29.154Z,14.05
2023-01-20T00:19:55.962Z,12.90
2023-01-20T00:22:22.699Z,12.90
2023-01-20T00:24:49.460Z,13.35
2023-01-20T00:27:18.409Z,13.57
2023-01-20T00:29:46.742Z,12.98
2023-01-20T00:32:13.612Z,13.65
2023-01-20T00:34:40.281Z,12.30
2023-01-20T00:37:06.929Z,11.50
2023-01-20T00:39:33.624Z,12.98
2023-01-20T00:42:00.318Z,12.32
2023-01-20T00:44:26.975Z,11.82
2023-01-20T00:46:53.667Z,14.27
2023-01-20T00:49:20.564Z,14.10
2023-01-20T00:51:47.210Z,12.27
2023-01-20T00:54:14.247Z,13.82
2023-01-20T00:56:40.872Z,13.07
2023-01-20T00:59:09.217Z,14.98
2023-01-20T01:01:35.964Z,14.10
2023-01-20T01:04:02.741Z,12.23
2023-01-20T01:06:29.383Z,12.63
2023-01-20T01:08:57.034Z,10.85
2023-01-20T01:11:23.692Z,10.07
2023-01-20T01:13:50.346Z,9.95
2023-01-20T01:16:17.432Z,11.05
2023-01-20T01:18:44.257Z,10.93
2023-01-20T01:21:14.528Z,12.43
2023-01-20T01:23:41.615Z,13.70
2023-01-20T01:26:09.366Z,13.27
2023-01-20T01:28:36.466Z,13.35
2023-01-20T01:31:04.578Z,11.25
2023-01-20T01:33:32.045Z,10.48
2023-01-20T01:36:01.008Z,9.52
2023-01-20T01:38:28.972Z,10.35
2023-01-20T01:40:56.348Z,8.18
2023-01-20T01:43:32.375Z,12.65
2023-01-20T01:45:59.760Z,12.82
2023-01-20T01:48:40.919Z,12.80
2023-01-20T01:51:10.041Z,12.73
2023-01-20T01:53:47.665Z,13.82
2023-01-20T01:56:15.885Z,13.02
2023-01-20T01:58:46.373Z,10.85
2023-01-20T02:01:13.438Z,12.23
2023-01-20T02:03:58.828Z,12.55
2023-01-20T02:06:31.601Z,11.00
2023-01-20T02:08:59.236Z,14.15
2023-01-20T02:11:26.071Z,12.55
2023-01-20T02:13:52.924Z,14.10
2023-01-20T02:16:51.775Z,12.13
2023-01-20T02:19:51.056Z,11.40
2023-01-20T02:22:45.096Z,9.90
2023-01-20T02:25:35.976Z,12.52
2023-01-20T02:28:34.987Z,10.38
2023-01-20T02:31:20.155Z,10.40
2023-01-20T02:34:16.781Z,12.10
2023-01-20T02:36:54.243Z,10.88
2023-01-20T02:39:48.849Z,10.80
2023-01-20T02:42:48.533Z,10.52
2023-01-20T02:45:18.111Z,11.25
2023-01-20T02:48:05.731Z,10.68
2023-01-20T02:50:39.747Z,8.73
2023-01-20T02:53:08.476Z,8.40
2023-01-20T02:55:46.357Z,9.98
2023-01-20T02:58:25.370Z,10.10
2023-01-20T03:00:57.852Z,10.18
2023-01-20T03:03:30.424Z,11.45
2023-01-20T03:06:01.840Z,12.63
2023-01-20T03:08:32.255Z,12.70
2023-01-20T03:11:04.828Z,12.30
2023-01-20T03:13:44.393Z,10.88
2023-01-20T03:16:17.920Z,9.80
2023-01-20T03:18:45.396Z,7.30
2023-01-20T03:21:13.607Z,8.30
2023-01-20T03:23:46.025Z,12.52
2023-01-20T03:26:14.664Z,11.52
2023-01-20T03:28:46.039Z,11.38
2023-01-20T03:31:27.475Z,9.35
2023-01-20T03:33:58.090Z,8.88
2023-01-20T03:36:28.175Z,10.85
2023-01-20T03:38:56.834Z,9.93
2023-01-20T03:41:23.474Z,9.13
2023-01-20T03:44:04.588Z,10.32
2023-01-20T03:46:40.068Z,11.20
2023-01-20T03:49:19.635Z,10.77
2023-01-20T03:52:15.813Z,10.73
2023-01-20T03:54:58.839Z,9.30
2023-01-20T03:57:32.203Z,11.57
2023-01-20T03:59:59.732Z,8.95
2023-01-20T04:02:28.130Z,11.65
2023-01-20T04:04:56.719Z,11.48
2023-01-20T04:07:26.163Z,13.63
2023-01-20T04:09:58.209Z,13.15
2023-01-20T04:14:51.477Z,11.55
2023-01-20T04:17:18.423Z,13.00
2023-01-20T04:19:45.037Z,13.38
2023-01-20T04:22:21.916Z,12.65
2023-01-20T04:25:03.407Z,11.73
2023-01-20T04:27:30.130Z,12.68
2023-01-20T04:29:56.811Z,13.68
2023-01-20T04:32:23.516Z,12.07
2023-01-20T04:34:52.193Z,11.68
2023-01-20T04:37:19.876Z,11.98
2023-01-20T04:39:46.596Z,12.18
2023-01-20T04:42:13.469Z,12.63
2023-01-20T04:44:40.122Z,13.13
2023-01-20T04:47:06.802Z,12.57
2023-01-20T04:49:35.358Z,12.50
2023-01-20T04:52:03.815Z,13.68
2023-01-20T04:54:30.469Z,13.05
2023-01-20T04:56:57.148Z,13.27
2023-01-20T04:59:23.821Z,13.60
2023-01-20T05:01:50.708Z,13.35
2023-01-20T05:04:17.404Z,13.55
2023-01-20T05:06:44.941Z,12.95
2023-01-20T05:09:15.826Z,11.65
2023-01-20T05:11:43.357Z,11.73
2023-01-20T05:14:11.739Z,10.07
2023-01-20T05:16:38.480Z,11.32
2023-01-20T05:19:05.384Z,12.90
2023-01-20T05:21:32.055Z,12.60
2023-01-20T05:23:58.764Z,13.27
2023-01-20T05:26:26.266Z,13.35
2023-01-20T05:28:54.339Z,12.75
2023-01-20T05:31:21.250Z,12.90
2023-01-20T05:33:48.026Z,12.18
2023-01-20T05:36:14.825Z,12.98
2023-01-20T05:38:41.655Z,12.23
2023-01-20T05:41:09.908Z,13.23
2023-01-20T05:43:36.961Z,12.57
2023-01-20T05:46:04.533Z,12.93
2023-01-20T05:48:31.462Z,12.48
2023-01-20T05:50:58.430Z,12.25
2023-01-20T05:53:25.183Z,13.15
2023-01-20T05:56:00.263Z,15.00
2023-01-20T05:58:27.077Z,14.07
2023-01-20T06:00:53.718Z,14.13
2023-01-20T06:03:20.365Z,13.68
2023-01-20T06:05:49.435Z,14.52
2023-01-20T06:08:16.234Z,14.43
2023-01-20T06:10:42.904Z,11.73
2023-01-20T06:13:09.596Z,11.50
2023-01-20T06:15:36.268Z,12.77
2023-01-20T06:18:03.830Z,13.48
2023-01-20T06:20:30.517Z,13.50
2023-01-20T06:22:57.199Z,14.20
2023-01-20T06:25:24.086Z,12.90
2023-01-20T06:27:50.870Z,13.02
2023-01-20T06:30:17.910Z,14.43
2023-01-20T06:32:47.727Z,13.90
2023-01-20T06:35:15.291Z,14.45
2023-01-20T06:37:42.170Z,14.25
2023-01-20T06:40:09.554Z,14.65
2023-01-20T06:42:36.193Z,13.57
2023-01-20T06:45:03.061Z,13.23
2023-01-20T06:47:29.715Z,12.63
2023-01-20T06:49:56.384Z,12.23
2023-01-20T06:52:23.103Z,15.00
2023-01-20T06:54:49.844Z,13.25
2023-01-20T06:57:16.598Z,14.05
2023-01-20T06:59:43.288Z,13.73
2023-01-20T07:02:12.418Z,14.05
2023-01-20T07:04:39.245Z,12.55
2023-01-20T07:07:05.998Z,15.15
2023-01-20T07:09:32.877Z,15.93
2023-01-20T07:11:59.528Z,16.27
2023-01-20T07:14:26.179Z,16.33
2023-01-20T07:16:52.898Z,15.95
2023-01-20T07:19:19.589Z,18.98
2023-01-20T07:21:46.409Z,13.45
2023-01-20T07:24:13.147Z,13.68
2023-01-20T07:26:39.794Z,11.52
2023-01-20T07:29:06.541Z,12.40
2023-01-20T07:31:34.293Z,11.20
2023-01-20T07:34:01.255Z,10.90
2023-01-20T07:36:27.955Z,9.30
2023-01-20T07:38:54.795Z,11.20
2023-01-20T07:41:22.403Z,12.65
2023-01-20T07:43:51.221Z,11.70
2023-01-20T07:46:18.679Z,9.98
2023-01-20T07:48:45.752Z,8.48
2023-01-20T07:51:14.805Z,10.65
2023-01-20T07:53:46.548Z,10.13
2023-01-20T07:56:16.214Z,10.57
2023-01-20T07:58:45.169Z,12.15
2023-01-20T08:01:18.465Z,18.38
2023-01-20T08:03:45.953Z,14.38
2023-01-20T08:06:15.194Z,12.25
2023-01-20T08:08:41.851Z,10.63
2023-01-20T08:11:10.450Z,10.35
2023-01-20T08:13:37.312Z,13.05
2023-01-20T08:16:07.145Z,12.30
2023-01-20T08:18:35.275Z,11.70
2023-01-20T08:21:08.136Z,11.50
2023-01-20T08:23:35.974Z,11.57
2023-01-20T08:26:06.537Z,11.05
2023-01-20T08:28:35.237Z,11.35
2023-01-20T08:31:13.463Z,10.57
2023-01-20T08:33:44.457Z,10.30
2023-01-20T08:36:17.820Z,11.50
2023-01-20T08:38:45.513Z,11.52
2023-01-20T08:41:15.212Z,12.27
2023-01-20T08:43:42.089Z,13.80
2023-01-20T08:46:12.322Z,12.38
2023-01-20T08:48:40.536Z,9.75
2023-01-20T08:51:10.558Z,10.38
2023-01-20T08:53:37.529Z,10.07
2023-01-20T08:56:04.655Z,9.88
2023-01-20T08:58:31.557Z,10.60
2023-01-20T09:00:58.463Z,10.45
2023-01-20T09:03:25.601Z,11.25
2023-01-20T09:05:52.467Z,10.30
2023-01-20T09:08:20.100Z,8.80
2023-01-20T09:10:47.071Z,8.68
2023-01-20T09:13:13.874Z,7.07
2023-01-20T09:15:40.616Z,6.35
2023-01-20T09:18:07.361Z,8.65
2023-01-20T09:20:34.376Z,8.55
2023-01-20T09:23:02.939Z,9.07
2023-01-20T09:25:30.058Z,9.23
2023-01-20T09:28:00.989Z,10.23
2023-01-20T09:30:27.976Z,12.20
2023-01-20T09:32:56.471Z,10.18
2023-01-20T09:35:23.274Z,10.95
2023-01-20T09:38:08.798Z,10.50
2023-01-20T09:41:02.278Z,9.05
2023-01-20T09:44:06.739Z,7.00
2023-01-20T09:46:45.650Z,8.82
2023-01-20T09:50:04.190Z,8.18
2023-01-20T09:52:54.390Z,9.70
2023-01-20T09:55:53.205Z,10.82
2023-01-20T09:58:41.634Z,6.85
2023-01-20T10:01:21.246Z,6.78
2023-01-20T10:03:53.675Z,9.65
2023-01-20T10:06:26.316Z,10.50
2023-01-20T10:09:06.690Z,8.70
2023-01-20T10:11:40.314Z,9.20
2023-01-20T10:14:15.234Z,8.40
2023-01-20T10:16:45.513Z,10.05
2023-01-20T10:19:27.065Z,9.27
2023-01-20T10:22:06.940Z,9.88
2023-01-20T10:24:41.114Z,9.27
2023-01-20T10:27:07.780Z,9.52
2023-01-20T10:29:40.569Z,8.90
2023-01-20T10:32:33.629Z,7.40
2023-01-20T10:35:08.513Z,8.63
2023-01-20T10:37:36.112Z,7.20
2023-01-20T10:40:24.741Z,8.10
2023-01-20T10:42:57.342Z,8.88
2023-01-20T10:45:51.016Z,8.60
2023-01-20T10:48:37.018Z,7.15
2023-01-20T10:51:28.563Z,7.80
2023-01-20T10:54:14.348Z,6.65
2023-01-20T10:56:45.711Z,9.13
2023-01-20T10:59:17.875Z,7.70
2023-01-20T11:01:59.201Z,11.07
2023-01-20T11:04:35.984Z,12.52
2023-01-20T11:07:03.691Z,10.10
2023-01-20T11:09:37.197Z,8.57
2023-01-20T11:12:12.262Z,8.75
2023-01-20T11:14:39.039Z,8.75
2023-01-20T11:17:08.529Z,9.35
2023-01-20T11:19:56.740Z,11.02
2023-01-20T11:22:35.322Z,11.77
2023-01-20T11:25:04.178Z,11.13
2023-01-20T11:27:45.967Z,11.15
2023-01-20T11:30:32.317Z,10.25
2023-01-20T11:33:17.542Z,11.55
2023-01-20T11:36:04.488Z,9.40
2023-01-20T11:38:46.209Z,8.70
2023-01-20T11:41:23.804Z,11.05
2023-01-20T11:43:53.050Z,12.73
2023-01-20T11:46:31.517Z,12.20
2023-01-20T11:49:13.233Z,8.80
2023-01-20T11:51:52.077Z,9.13
2023-01-20T11:54:22.743Z,11.65
2023-01-20T11:56:54.399Z,9.45
2023-01-20T11:59:30.921Z,12.27
2023-01-20T12:02:00.781Z,11.05
2023-01-20T12:05:06.905Z,12.43
2023-01-20T12:07:44.459Z,8.23
2023-01-20T12:10:30.242Z,12.73
2023-01-20T12:13:16.159Z,10.82
2023-01-20T12:15:52.792Z,11.40
2023-01-20T12:18:34.929Z,12.18
2023-01-20T12:21:19.833Z,10.35
2023-01-20T12:24:03.815Z,10.93
2023-01-20T12:26:35.191Z,9.93
2023-01-20T12:29:24.437Z,9.70
2023-01-20T12:31:51.420Z,10.30
2023-01-20T12:34:29.580Z,11.07
2023-01-20T12:37:11.592Z,11.13
2023-01-20T12:40:16.285Z,11.00
2023-01-20T12:43:05.151Z,10.23
2023-01-20T12:45:44.777Z,9.52
2023-01-20T12:48:32.765Z,9.48
2023-01-20T12:51:09.393Z,9.57
2023-01-20T12:54:03.569Z,10.63
2023-01-20T12:56:54.415Z,10.40
2023-01-20T12:59:39.511Z,10.10
2023-01-20T13:02:21.188Z,10.18
2023-01-20T13:05:20.398Z,10.43
2023-01-20T13:07:47.051Z,9.82
2023-01-20T13:10:29.200Z,9.23
2023-01-20T13:15:45.882Z,9.80
2023-01-20T13:18:18.422Z,10.00
2023-01-20T13:20:46.729Z,9.85
2023-01-20T13:23:21.913Z,10.63
2023-01-20T13:25:49.237Z,10.63
2023-01-20T13:28:24.866Z,9.23
2023-01-20T13:30:54.925Z,8.70
2023-01-20T13:33:30.045Z,8.70
2023-01-20T13:35:59.940Z,7.60
2023-01-20T13:38:33.101Z,7.53
2023-01-20T13:41:03.358Z,6.80
2023-01-20T13:43:33.134Z,9.13
2023-01-20T13:46:05.818Z,9.30
2023-01-20T13:48:34.132Z,9.25
2023-01-20T13:51:15.911Z,8.32
2023-01-20T13:53:43.306Z,8.05
2023-01-20T13:56:32.877Z,7.90
2023-01-20T13:58:59.551Z,6.15
2023-01-20T14:01:27.807Z,6.60
2023-01-20T14:04:06.632Z,6.05
2023-01-20T14:06:35.611Z,7.15
2023-01-20T14:09:04.302Z,7.00
2023-01-20T14:11:31.347Z,6.75
2023-01-20T14:14:06.749Z,6.70
2023-01-20T14:16:37.982Z,6.45
2023-01-20T14:19:34.429Z,6.38
2023-01-20T14:22:19.820Z,6.35
2023-01-20T14:24:49.592Z,7.07
2023-01-20T14:27:27.073Z,7.13
2023-01-20T14:29:55.922Z,5.50
2023-01-20T14:32:26.382Z,6.95
2023-01-20T14:34:53.870Z,7.93
2023-01-20T14:37:34.338Z,6.30
2023-01-20T14:40:07.729Z,6.07
2023-01-20T14:42:34.716Z,6.28
2023-01-20T14:45:01.610Z,7.15
2023-01-20T14:47:31.937Z,6.20
2023-01-20T14:49:58.907Z,11.88
2023-01-20T14:52:32.163Z,8.73
2023-01-20T14:54:58.982Z,8.13
2023-01-20T14:57:31.188Z,7.40
2023-01-20T15:00:26.102Z,6.32
2023-01-20T15:03:21.463Z,8.00
2023-01-20T15:05:58.194Z,6.85
2023-01-20T15:08:56.972Z,6.80
2023-01-20T15:14:00.889Z,6.43
2023-01-20T15:16:44.686Z,5.13
2023-01-20T15:19:17.289Z,6.07
2023-01-20T15:21:58.006Z,5.57
2023-01-20T15:24:30.709Z,5.55
2023-01-20T15:27:03.788Z,6.85
2023-01-20T15:29:36.833Z,5.45
2023-01-20T15:32:11.789Z,6.18
2023-01-20T15:34:38.765Z,6.55
2023-01-20T15:37:15.497Z,6.65
2023-01-20T15:39:42.153Z,7.03
2023-01-20T15:42:11.936Z,8.07
2023-01-20T15:44:38.683Z,6.70
2023-01-20T15:47:33.131Z,7.40
2023-01-20T15:49:59.854Z,7.18
2023-01-20T15:52:26.730Z,6.57
2023-01-20T15:54:53.400Z,6.80
2023-01-20T15:57:20.139Z,7.38
2023-01-20T15:59:49.529Z,6.60
2023-01-20T16:02:21.577Z,8.13
2023-01-20T16:07:17.513Z,8.25
2023-01-20T16:09:44.722Z,7.35
2023-01-20T16:12:16.358Z,8.02
2023-01-20T16:14:44.105Z,8.23
2023-01-20T16:17:19.175Z,11.07
2023-01-20T16:19:45.934Z,8.85
2023-01-20T16:22:13.579Z,8.93
2023-01-20T16:24:41.304Z,8.38
2023-01-20T16:27:21.168Z,9.35
2023-01-20T16:29:49.136Z,9.15
2023-01-20T16:32:18.177Z,8.90
2023-01-20T16:34:46.729Z,8.88
2023-01-20T16:37:14.457Z,9.77
2023-01-20T16:39:41.331Z,12.32
2023-01-20T16:42:11.957Z,11.13
2023-01-20T16:44:38.988Z,13.90
2023-01-20T16:47:06.530Z,9.70
2023-01-20T16:49:33.220Z,8.15
2023-01-20T16:51:59.959Z,10.82
2023-01-20T16:54:26.642Z,11.48
2023-01-20T16:56:53.323Z,13.43
2023-01-20T16:59:20.072Z,13.27
2023-01-20T17:01:49.812Z,13.63
2023-01-20T17:04:16.696Z,16.48
2023-01-20T17:06:43.467Z,13.85
2023-01-20T17:09:10.831Z,14.43
2023-01-20T17:11:38.980Z,12.25
2023-01-20T17:14:07.440Z,12.93
2023-01-20T17:16:34.524Z,12.43
2023-01-20T17:19:06.913Z,11.90
2023-01-20T17:21:36.886Z,11.18
2023-01-20T17:24:05.275Z,12.65
2023-01-20T17:26:32.459Z,12.98
2023-01-20T17:29:04.551Z,10.93
2023-01-20T17:31:35.363Z,10.75
2023-01-20T17:34:03.733Z,11.30
2023-01-20T17:36:34.240Z,10.90
2023-01-20T17:39:02.016Z,10.65
2023-01-20T17:41:28.917Z,11.90
2023-01-20T17:43:55.615Z,10.90
2023-01-20T17:46:30.264Z,11.95
2023-01-20T17:48:58.608Z,11.50
2023-01-20T17:51:28.063Z,11.32
2023-01-20T17:53:56.769Z,11.40
2023-01-20T17:56:24.121Z,10.90
2023-01-20T17:58:51.185Z,13.23
2023-01-20T18:01:23.265Z,12.45
2023-01-20T18:03:52.819Z,12.30
2023-01-20T18:06:21.108Z,12.38
2023-01-20T18:08:53.657Z,11.65
2023-01-20T18:11:22.863Z,11.93
2023-01-20T18:13:51.559Z,10.90
2023-01-20T18:16:20.717Z,10.48
2023-01-20T18:18:48.947Z,11.93
2023-01-20T18:21:21.702Z,12.07
2023-01-20T18:23:50.018Z,12.18
2023-01-20T18:26:19.655Z,12.93
2023-01-20T18:28:49.072Z,14.68
2023-01-20T18:31:19.193Z,15.27
2023-01-20T18:34:12.845Z,14.43
2023-01-20T18:36:41.950Z,12.40
2023-01-20T18:39:20.464Z,12.20
2023-01-20T18:41:48.336Z,11.32
2023-01-20T18:44:15.589Z,12.20
2023-01-20T18:46:42.573Z,14.27
2023-01-20T18:49:15.732Z,13.32
2023-01-20T18:51:43.082Z,11.68
2023-01-20T18:54:18.315Z,10.93
2023-01-20T18:56:45.362Z,12.52
2023-01-20T18:59:13.128Z,12.95
2023-01-20T19:01:40.933Z,13.27
2023-01-20T19:04:11.839Z,12.57
2023-01-20T19:06:41.268Z,12.25
2023-01-20T19:09:08.583Z,13.30
2023-01-20T19:11:41.957Z,12.35
2023-01-20T19:14:13.576Z,12.00
2023-01-20T19:16:48.832Z,12.20
2023-01-20T19:19:17.490Z,11.52
2023-01-20T19:21:44.284Z,10.38
2023-01-20T19:24:17.593Z,11.20
2023-01-20T19:26:44.330Z,12.50
2023-01-20T19:29:15.579Z,14.82
2023-01-20T19:31:42.596Z,16.48
2023-01-20T19:34:10.271Z,13.48
2023-01-20T19:36:37.729Z,13.98
2023-01-20T19:39:05.646Z,13.05
2023-01-20T19:41:34.313Z,19.52
2023-01-20T19:44:07.323Z,18.10
2023-01-20T19:46:38.613Z,15.98
2023-01-20T19:49:06.188Z,13.95
2023-01-20T19:51:33.130Z,12.85
2023-01-20T19:54:03.079Z,11.25
2023-01-20T19:56:32.357Z,12.25
2023-01-20T19:59:00.785Z,11.27
2023-01-20T20:01:31.638Z,14.93
2023-01-20T20:04:03.457Z,14.60
2023-01-20T20:06:35.801Z,15.43
2023-01-20T20:09:11.821Z,16.38
2023-01-20T20:11:39.071Z,20.60
2023-01-20T20:14:07.634Z,17.50
2023-01-20T20:16:36.677Z,13.35
2023-01-20T20:19:04.549Z,21.70
2023-01-20T20:21:31.253Z,32.60
2023-01-20T20:24:00.185Z,19.60
2023-01-20T20:26:29.948Z,20.95
2023-01-20T20:28:58.897Z,20.60
2023-01-20T20:31:29.592Z,19.75
2023-01-20T20:34:00.826Z,21.30
2023-01-20T20:36:29.617Z,19.43
2023-01-20T20:38:58.400Z,19.98
2023-01-20T20:41:28.738Z,21.90
2023-01-20T20:43:55.608Z,19.65
2023-01-20T20:46:22.500Z,19.13
2023-01-20T20:48:49.189Z,18.10
2023-01-20T20:51:16.954Z,20.52
2023-01-20T20:53:44.261Z,13.35
2023-01-20T20:56:14.173Z,14.07
2023-01-20T20:58:55.530Z,14.68
2023-01-20T21:01:26.907Z,14.43
2023-01-20T21:03:54.056Z,15.98
2023-01-20T21:06:22.620Z,13.45
2023-01-20T21:08:49.544Z,18.15
2023-01-20T21:11:16.217Z,17.27
2023-01-20T21:13:44.341Z,16.08
2023-01-20T21:16:15.469Z,16.48
2023-01-20T21:18:42.499Z,15.73
2023-01-20T21:21:13.633Z,15.38
2023-01-20T21:23:41.020Z,15.00
2023-01-20T21:26:12.436Z,13.38
2023-01-20T21:28:40.737Z,13.35
2023-01-20T21:31:19.145Z,12.00
2023-01-20T21:33:46.561Z,11.98
2023-01-20T21:36:13.455Z,12.05
2023-01-20T21:38:42.940Z,12.35
2023-01-20T21:41:10.764Z,12.38
2023-01-20T21:43:58.444Z,12.23
2023-01-20T21:46:27.058Z,11.23
2023-01-20T21:49:12.251Z,10.60
2023-01-20T21:51:57.515Z,10.35
2023-01-20T21:54:31.579Z,9.75
2023-01-20T21:56:59.688Z,10.02
2023-01-20T21:59:26.891Z,10.25
2023-01-20T22:01:53.846Z,10.00
2023-01-20T22:04:20.556Z,9.10
2023-01-20T22:06:47.219Z,9.80
2023-01-20T22:09:13.958Z,10.05
2023-01-20T22:11:40.965Z,9.07
2023-01-20T22:14:08.869Z,9.65
2023-01-20T22:16:35.567Z,9.90
2023-01-20T22:19:03.374Z,10.18
2023-01-20T22:21:30.054Z,9.27
2023-01-20T22:23:56.748Z,9.30
2023-01-20T22:26:23.527Z,9.63
2023-01-20T22:28:50.208Z,9.00
2023-01-20T22:31:21.688Z,9.68
2023-01-20T22:33:52.818Z,8.60
2023-01-20T22:36:21.176Z,9.00
2023-01-20T22:38:49.657Z,9.23
2023-01-20T22:41:16.871Z,9.82
2023-01-20T22:43:48.267Z,10.05
2023-01-20T22:46:17.270Z,8.32
2023-01-20T22:48:44.627Z,8.95
2023-01-20T22:51:19.694Z,9.40
2023-01-20T22:53:47.080Z,8.88
2023-01-20T22:56:19.355Z,9.38
2023-01-20T22:58:46.790Z,10.00
2023-01-20T23:01:15.957Z,8.20
2023-01-20T23:03:43.563Z,9.98
2023-01-20T23:06:11.139Z,9.27
2023-01-20T23:08:38.868Z,9.35
2023-01-20T23:11:08.933Z,8.25
2023-01-20T23:13:36.522Z,9.48
2023-01-20T23:16:04.659Z,8.30
2023-01-20T23:18:32.104Z,7.15
2023-01-20T23:20:59.292Z,8.43
2023-01-20T23:23:27.594Z,10.50
2023-01-20T23:26:05.629Z,8.73
2023-01-20T23:28:33.166Z,7.30
2023-01-20T23:31:08.400Z,10.02
2023-01-20T23:33:35.303Z,9.93
2023-01-20T23:36:09.579Z,10.52
2023-01-20T23:38:36.374Z,12.30
2023-01-20T23:41:03.840Z,11.48
2023-01-20T23:43:31.970Z,9.70
2023-01-20T23:46:01.252Z,10.35
2023-01-20T23:48:29.317Z,9.35
2023-01-20T23:50:56.530Z,8.27
2023-01-20T23:53:23.552Z,8.60
2023-01-20T23:55:50.256Z,8.43
2023-01-20T23:58:17.027Z,10.18
